Fort Wayne International Airport
KFWA : rendu visible

Aérodrome :











RETROUVEZ-NOUS SUR...

 
LOGIN :

S'inscrire | Disclaimer

   EN    FR    IT 

 









Légende :    VFR   VFR Marginal   IFR   IFR Intensif   IFR Très Intensif
Visi : 
Plafond : 
>= 8 km
>= 3000ft
5 à 8 km
1000 à 3000 ft
1500m à 5 km
500 à 1000 ft
800 à 1500m
200 à 500 ft
< 800m
< 200 ft
Symboles :   Orages  Brouillard  Fortes neiges  Fortes précipitations  Vent > 20 kt






- Altitude de l'aérodrome : 814 ft
- Code IATA : FWA


KFWA - Fort Wayne International

DERNIER METAR :
  • 050654Z 00000KT 4SM BR BKN120 BKN150 21/19 A3000 RMK AO2 SLP151 T02110194

METARs EXPIRÉS :
  • 050554Z 05003KT 6SM BR FEW110 SCT150 21/19 A3000 RMK AO2 SLP153 T02060189 10267 20206 50001
  • 050454Z 00000KT 8SM SCT100 BKN150 22/19 A3001 RMK AO2 SLP154 T02170194 403390206

TAF KFWA
Valide du 05 à 06h jusqu'au 06 à 06h UTC


050520Z 0506/0606 00000KT P6SM SCT100
TEMPO 0509/0512 4SM BR
FM051600 12004KT P6SM SCT060
FIR KZAU / Amérique du Nord



MET'MAP, la Météo Aéronautique d'un coup d'oeil ! - Copyright ORBIFLY Décembre 2007 - Disclaimer

ORBIFLY MET'MAP TEAM :

Programmation & Développement : Alexandra Zaïnal
Sur une idée originale de : Baudouin d'Aumeries
Assistance à la programmation : Marc-Olivier Méhu
Soutien technique & logistique : Manuel Goepfert

Contact : metmap@orbifly.com




SOURCES & CREDITS :

   NOAA       Earth
Advisory